createdAt,value
2022-08-11T00:02:04.658Z,97200.13
2022-08-11T00:04:40.313Z,97205.09
2022-08-11T00:07:12.275Z,97213.13
2022-08-11T00:09:42.566Z,97216.44
2022-08-11T00:12:19.004Z,97221.41
2022-08-11T00:14:58.690Z,97226.25
2022-08-11T00:17:36.548Z,97241.13
2022-08-11T00:20:15.793Z,97241.75
2022-08-11T00:22:49.034Z,97258.47
2022-08-11T00:25:23.304Z,97271.25
2022-08-11T00:27:52.772Z,97282.91
2022-08-11T00:30:22.529Z,97299.09
2022-08-11T00:32:59.883Z,97309.81
2022-08-11T00:35:56.534Z,97310.25
2022-08-11T00:38:27.069Z,97323.56
2022-08-11T00:41:06.387Z,97329.16
2022-08-11T00:43:44.025Z,97342.94
2022-08-11T00:46:43.386Z,97341.19
2022-08-11T00:49:27.806Z,97341.69
2022-08-11T00:52:10.422Z,97352.69
2022-08-11T00:55:18.411Z,97357.22
2022-08-11T00:58:06.367Z,97355.09
2022-08-11T01:01:06.167Z,97368.38
2022-08-11T01:04:00.242Z,97361.19
2022-08-11T01:06:57.109Z,97353.47
2022-08-11T01:09:53.603Z,97350.69
2022-08-11T01:12:59.098Z,97344.34
2022-08-11T01:16:03.517Z,97345.16
2022-08-11T01:19:08.034Z,97354.31
2022-08-11T01:22:01.409Z,97355.53
2022-08-11T01:25:12.666Z,97354.94
2022-08-11T01:28:08.082Z,97350.25
2022-08-11T01:30:50.041Z,97346.09
2022-08-11T01:33:55.752Z,97352.59
2022-08-11T01:36:28.305Z,97353.34
2022-08-11T01:39:13.614Z,97355.91
2022-08-11T01:42:08.877Z,97357.78
2022-08-11T01:44:53.843Z,97358.13
2022-08-11T01:47:53.307Z,97353.16
2022-08-11T01:50:25.957Z,97355.75
2022-08-11T01:52:55.616Z,97355.47
2022-08-11T01:55:48.097Z,97358.31
2022-08-11T01:58:44.115Z,97358.56
2022-08-11T02:01:28.870Z,97357.09
2022-08-11T02:04:19.632Z,97362.31
2022-08-11T02:08:03.250Z,97374.84
2022-08-11T02:10:56.184Z,97384.81
2022-08-11T02:14:02.677Z,97388.84
2022-08-11T02:17:10.504Z,97399.44
2022-08-11T02:20:01.300Z,97397.38
2022-08-11T02:24:00.539Z,97402.06
2022-08-11T02:26:12.361Z,97402.50
2022-08-11T02:28:48.092Z,97415.00
2022-08-11T02:32:17.153Z,97427.63
2022-08-11T02:35:01.323Z,97430.84
2022-08-11T02:37:57.375Z,97429.09
2022-08-11T02:40:42.595Z,97441.72
2022-08-11T02:43:47.927Z,97442.38
2022-08-11T02:46:39.209Z,97441.81
2022-08-11T02:49:47.793Z,97441.56
2022-08-11T02:52:46.452Z,97439.78
2022-08-11T02:55:48.692Z,97449.88
2022-08-11T02:59:19.307Z,97440.44
2022-08-11T03:02:04.908Z,97441.09
2022-08-11T03:05:03.760Z,97447.13
2022-08-11T03:07:55.973Z,97444.78
2022-08-11T03:11:26.736Z,97451.84
2022-08-11T03:14:30.270Z,97444.13
2022-08-11T03:17:18.596Z,97448.72
2022-08-11T03:20:02.289Z,97452.56
2022-08-11T03:22:42.454Z,97451.25
2022-08-11T03:25:40.238Z,97451.03
2022-08-11T03:28:34.140Z,97463.19
2022-08-11T03:31:21.705Z,97472.13
2022-08-11T03:34:07.553Z,97483.00
2022-08-11T03:37:15.346Z,97496.00
2022-08-11T03:40:43.154Z,97504.31
2022-08-11T03:43:58.563Z,97506.81
2022-08-11T03:46:46.256Z,97517.88
2022-08-11T03:49:52.002Z,97506.81
2022-08-11T03:52:28.477Z,97513.81
2022-08-11T03:55:19.234Z,97515.34
2022-08-11T03:58:34.976Z,97521.34
2022-08-11T04:01:25.132Z,97515.56
2022-08-11T04:04:10.387Z,97521.72
2022-08-11T04:07:04.431Z,97511.78
2022-08-11T04:10:10.222Z,97508.97
2022-08-11T04:13:15.240Z,97497.06
2022-08-11T04:16:17.397Z,97501.19
2022-08-11T04:19:05.333Z,97500.13
2022-08-11T04:21:56.902Z,97503.66
2022-08-11T04:24:50.182Z,97510.44
2022-08-11T04:27:55.936Z,97526.97
2022-08-11T04:30:41.980Z,97536.63
2022-08-11T04:33:39.112Z,97541.41
2022-08-11T04:36:52.235Z,97562.66
2022-08-11T04:39:24.992Z,97566.41
2022-08-11T04:42:53.462Z,97574.03
2022-08-11T04:45:51.699Z,97583.22
2022-08-11T04:48:57.450Z,97577.38
2022-08-11T04:52:05.478Z,97593.78
2022-08-11T04:55:10.685Z,97589.84
2022-08-11T04:58:17.066Z,97580.53
2022-08-11T05:01:35.141Z,97576.72
2022-08-11T05:04:43.615Z,97588.38
2022-08-11T05:07:51.068Z,97575.03
2022-08-11T05:10:59.237Z,97578.06
2022-08-11T05:13:54.751Z,97581.91
2022-08-11T05:16:49.544Z,97576.97
2022-08-11T05:19:39.149Z,97578.94
2022-08-11T05:22:31.478Z,97582.53
2022-08-11T05:26:45.330Z,97592.00
2022-08-11T05:28:56.564Z,97604.09
2022-08-11T05:31:53.942Z,97596.66
2022-08-11T05:34:57.331Z,97606.91
2022-08-11T05:37:36.566Z,97603.13
2022-08-11T05:40:32.428Z,97606.91
2022-08-11T05:43:26.200Z,97604.78
2022-08-11T05:46:24.402Z,97601.63
2022-08-11T05:49:15.295Z,97605.56
2022-08-11T05:52:12.821Z,97598.09
2022-08-11T05:55:06.450Z,97609.13
2022-08-11T05:57:51.517Z,97621.44
2022-08-11T06:00:22.515Z,97615.09
2022-08-11T06:03:08.314Z,97610.44
2022-08-11T06:05:44.009Z,97607.13
2022-08-11T06:08:15.695Z,97596.88
2022-08-11T06:10:47.484Z,97592.84
2022-08-11T06:13:19.212Z,97590.88
2022-08-11T06:15:55.400Z,97586.16
2022-08-11T06:18:26.055Z,97590.06
2022-08-11T06:20:59.666Z,97584.16
2022-08-11T06:23:36.166Z,97579.69
2022-08-11T06:26:12.129Z,97574.63
2022-08-11T06:28:48.097Z,97574.97
2022-08-11T06:31:26.346Z,97576.63
2022-08-11T06:34:26.646Z,97574.13
2022-08-11T06:37:19.819Z,97575.19
2022-08-11T06:40:07.830Z,97574.28
2022-08-11T06:42:50.204Z,97570.13
2022-08-11T06:45:30.947Z,97572.75
2022-08-11T06:48:02.368Z,97575.91
2022-08-11T06:50:52.730Z,97570.88
2022-08-11T06:53:25.968Z,97569.94
2022-08-11T06:56:26.683Z,97569.91
2022-08-11T06:59:15.113Z,97576.91
2022-08-11T07:02:31.359Z,97566.53
2022-08-11T07:05:13.261Z,97564.25
2022-08-11T07:08:34.586Z,97571.41
2022-08-11T07:12:00.303Z,97567.44
2022-08-11T07:14:51.093Z,97575.69
2022-08-11T07:17:24.376Z,97576.66
2022-08-11T07:20:18.490Z,97573.16
2022-08-11T07:23:22.915Z,97568.19
2022-08-11T07:26:17.414Z,97555.84
2022-08-11T07:28:58.034Z,97553.22
2022-08-11T07:31:37.540Z,97566.91
2022-08-11T07:34:22.089Z,97573.13
2022-08-11T07:36:56.410Z,97579.81
2022-08-11T07:39:46.071Z,97581.22
2022-08-11T07:42:19.140Z,97584.38
2022-08-11T07:45:10.480Z,97587.53
2022-08-11T07:48:01.462Z,97588.53
2022-08-11T07:50:54.234Z,97594.19
2022-08-11T07:53:26.686Z,97592.53
2022-08-11T07:55:59.378Z,97593.19
2022-08-11T07:58:52.456Z,97603.09
2022-08-11T08:01:46.402Z,97608.28
2022-08-11T08:04:37.138Z,97614.22
2022-08-11T08:07:25.979Z,97609.09
2022-08-11T08:10:16.243Z,97614.28
2022-08-11T08:13:04.049Z,97614.84
2022-08-11T08:15:52.595Z,97594.72
2022-08-11T08:18:27.750Z,97590.94
2022-08-11T08:21:13.349Z,97586.81
2022-08-11T08:23:54.058Z,97592.09
2022-08-11T08:26:51.432Z,97595.97
2022-08-11T08:29:41.401Z,97602.53
2022-08-11T08:32:13.115Z,97603.75
2022-08-11T08:34:43.263Z,97599.88
2022-08-11T08:37:16.066Z,97605.31
2022-08-11T08:40:04.285Z,97611.09
2022-08-11T08:42:41.718Z,97620.47
2022-08-11T08:45:20.059Z,97629.59
2022-08-11T08:48:00.435Z,97634.00
2022-08-11T08:50:54.092Z,97648.91
2022-08-11T08:53:30.857Z,97645.97
2022-08-11T08:56:05.066Z,97653.84
2022-08-11T08:58:37.854Z,97641.31
2022-08-11T09:01:08.858Z,97638.78
2022-08-11T09:04:04.575Z,97642.88
2022-08-11T09:06:33.410Z,97645.50
2022-08-11T09:09:03.097Z,97644.94
2022-08-11T09:11:51.615Z,97649.41
2022-08-11T09:15:01.631Z,97652.63
2022-08-11T09:17:33.296Z,97639.53
2022-08-11T09:20:13.442Z,97631.75
2022-08-11T09:23:54.600Z,97645.41
2022-08-11T09:26:16.767Z,97632.44
2022-08-11T09:28:54.146Z,97639.53
2022-08-11T09:31:25.114Z,97636.34
2022-08-11T09:33:57.028Z,97637.25
2022-08-11T09:36:46.246Z,97636.25
2022-08-11T09:39:49.551Z,97637.81
2022-08-11T09:42:23.329Z,97635.44
2022-08-11T09:44:54.474Z,97634.59
2022-08-11T09:47:28.899Z,97636.03
2022-08-11T09:50:04.259Z,97627.41
2022-08-11T09:52:52.184Z,97635.91
2022-08-11T09:55:30.676Z,97641.81
2022-08-11T09:58:42.153Z,97651.03
2022-08-11T10:01:27.997Z,97650.47
2022-08-11T10:04:03.312Z,97649.72
2022-08-11T10:06:53.278Z,97647.63
2022-08-11T10:09:27.082Z,97647.94
2022-08-11T10:11:58.947Z,97651.00
2022-08-11T10:14:49.449Z,97660.13
2022-08-11T10:17:22.782Z,97657.78
2022-08-11T10:20:05.408Z,97653.84
2022-08-11T10:22:55.845Z,97663.59
2022-08-11T10:25:44.243Z,97661.88
2022-08-11T10:28:36.369Z,97654.63
2022-08-11T10:31:30.542Z,97645.91
2022-08-11T10:34:15.969Z,97627.25
2022-08-11T10:36:52.631Z,97599.81
2022-08-11T10:39:23.743Z,97568.72
2022-08-11T10:42:25.522Z,97540.25
2022-08-11T10:45:06.009Z,97521.63
2022-08-11T10:47:36.867Z,97531.91
2022-08-11T10:50:29.914Z,97537.44
2022-08-11T10:53:20.264Z,97538.97
2022-08-11T10:56:09.150Z,97527.88
2022-08-11T10:58:52.879Z,97518.16
2022-08-11T11:01:29.213Z,97513.53
2022-08-11T11:04:13.543Z,97509.50
2022-08-11T11:07:16.229Z,97493.94
2022-08-11T11:09:51.571Z,97477.66
2022-08-11T11:16:40.200Z,97460.94
2022-08-11T11:19:13.590Z,97441.56
2022-08-11T11:21:47.502Z,97432.31
2022-08-11T11:24:43.387Z,97421.94
2022-08-11T11:27:46.613Z,97420.69
2022-08-11T11:30:18.834Z,97417.59
2022-08-11T11:33:26.111Z,97425.78
2022-08-11T11:36:30.388Z,97429.22
2022-08-11T11:39:03.157Z,97436.47
2022-08-11T11:41:34.153Z,97429.38
2022-08-11T11:44:05.798Z,97423.56
2022-08-11T11:46:38.952Z,97410.53
2022-08-11T11:49:16.656Z,97398.38
2022-08-11T11:51:57.056Z,97387.56
2022-08-11T11:54:31.910Z,97368.84
2022-08-11T11:57:23.597Z,97373.41
2022-08-11T12:00:14.484Z,97362.66
2022-08-11T12:02:46.311Z,97370.66
2022-08-11T12:05:21.235Z,97381.88
2022-08-11T12:08:13.037Z,97383.75
2022-08-11T12:10:50.746Z,97376.19
2022-08-11T12:13:42.371Z,97367.06
2022-08-11T12:16:33.124Z,97372.25
2022-08-11T12:19:22.088Z,97361.81
2022-08-11T12:22:17.755Z,97353.03
2022-08-11T12:25:12.943Z,97346.19
2022-08-11T12:27:44.404Z,97334.69
2022-08-11T12:30:21.416Z,97333.09
2022-08-11T12:32:54.941Z,97337.41
2022-08-11T12:35:30.279Z,97328.34
2022-08-11T12:38:10.840Z,97319.06
2022-08-11T12:41:15.731Z,97321.69
2022-08-11T12:44:11.458Z,97319.63
2022-08-11T12:46:49.482Z,97313.81
2022-08-11T12:49:51.702Z,97319.38
2022-08-11T12:52:32.248Z,97317.44
2022-08-11T12:55:16.899Z,97321.75
2022-08-11T12:58:12.778Z,97325.72
2022-08-11T13:01:12.637Z,97323.84
2022-08-11T13:04:03.862Z,97330.81
2022-08-11T13:06:42.057Z,97328.84
2022-08-11T13:09:21.518Z,97316.28
2022-08-11T13:12:17.876Z,97318.38
2022-08-11T13:14:50.205Z,97320.91
2022-08-11T13:17:44.058Z,97326.81
2022-08-11T13:20:18.037Z,97327.66
2022-08-11T13:23:00.760Z,97337.84
2022-08-11T13:25:40.594Z,97343.38
2022-08-11T13:28:15.068Z,97346.63
2022-08-11T13:31:11.245Z,97357.44
2022-08-11T13:33:57.586Z,97364.56
2022-08-11T13:36:33.914Z,97368.19
2022-08-11T13:39:13.170Z,97384.44
2022-08-11T13:41:54.013Z,97396.84
2022-08-11T13:44:54.024Z,97412.66
2022-08-11T13:47:26.640Z,97432.13
2022-08-11T13:50:04.832Z,97448.88
2022-08-11T13:52:44.435Z,97461.41
2022-08-11T13:55:36.525Z,97476.00
2022-08-11T13:58:39.708Z,97486.09
2022-08-11T14:02:03.755Z,97498.91
2022-08-11T14:04:31.692Z,97512.22
2022-08-11T14:07:13.493Z,97520.56
2022-08-11T14:09:56.506Z,97538.78
2022-08-11T14:12:57.442Z,97548.16
2022-08-11T14:15:40.847Z,97562.03
2022-08-11T14:18:24.347Z,97569.34
2022-08-11T14:21:21.263Z,97575.81
2022-08-11T14:23:57.250Z,97586.78
2022-08-11T14:26:36.734Z,97589.94
2022-08-11T14:29:23.824Z,97585.28
2022-08-11T14:31:56.957Z,97593.53
2022-08-11T14:34:31.356Z,97592.38
2022-08-11T14:37:04.354Z,97596.59
2022-08-11T14:39:40.281Z,97594.97
2022-08-11T14:42:30.330Z,97602.34
2022-08-11T14:45:05.370Z,97603.63
2022-08-11T14:47:45.293Z,97605.53
2022-08-11T14:50:19.976Z,97614.66
2022-08-11T14:52:57.892Z,97625.13
2022-08-11T14:55:49.239Z,97628.97
2022-08-11T14:58:24.498Z,97639.34
2022-08-11T15:01:00.307Z,97644.28
2022-08-11T15:03:35.960Z,97645.31
2022-08-11T15:06:08.703Z,97648.47
2022-08-11T15:08:56.446Z,97656.50
2022-08-11T15:11:50.133Z,97661.28
2022-08-11T15:14:41.273Z,97659.66
2022-08-11T15:17:14.025Z,97666.88
2022-08-11T15:20:06.491Z,97669.00
2022-08-11T15:22:54.971Z,97668.28
2022-08-11T15:25:24.910Z,97674.25
2022-08-11T15:28:15.091Z,97675.97
2022-08-11T15:31:07.099Z,97678.91
2022-08-11T15:33:58.854Z,97680.41
2022-08-11T15:36:49.272Z,97678.22
2022-08-11T15:40:08.532Z,97686.34
2022-08-11T15:43:49.296Z,97676.25
2022-08-11T15:46:29.414Z,97672.47
2022-08-11T15:49:04.327Z,97660.88
2022-08-11T15:51:47.192Z,97655.28
2022-08-11T15:54:21.237Z,97656.78
2022-08-11T15:56:56.113Z,97658.63
2022-08-11T15:59:45.448Z,97655.03
2022-08-11T16:02:18.867Z,97652.38
2022-08-11T16:04:50.687Z,97658.63
2022-08-11T16:07:27.877Z,97641.41
2022-08-11T16:10:18.764Z,97629.50
2022-08-11T16:13:23.055Z,97630.59
2022-08-11T16:16:16.174Z,97633.53
2022-08-11T16:19:00.082Z,97622.69
2022-08-11T16:21:36.350Z,97626.88
2022-08-11T16:24:09.678Z,97630.34
2022-08-11T16:27:10.385Z,97623.81
2022-08-11T16:29:49.096Z,97629.28
2022-08-11T16:32:24.914Z,97631.06
2022-08-11T16:35:21.214Z,97637.06
2022-08-11T16:38:11.779Z,97630.72
2022-08-11T16:40:43.640Z,97644.59
2022-08-11T16:43:36.859Z,97637.50
2022-08-11T16:46:27.050Z,97638.53
2022-08-11T16:48:58.483Z,97639.69
2022-08-11T16:51:28.637Z,97635.13
2022-08-11T16:54:04.556Z,97640.22
2022-08-11T16:56:49.284Z,97635.50
2022-08-11T16:59:31.179Z,97645.50
2022-08-11T17:02:08.818Z,97643.53
2022-08-11T17:05:12.920Z,97643.03
2022-08-11T17:08:03.196Z,97647.44
2022-08-11T17:11:01.688Z,97641.63
2022-08-11T17:13:43.155Z,97627.88
2022-08-11T17:16:15.334Z,97630.19
2022-08-11T17:19:03.555Z,97630.19
2022-08-11T17:22:04.596Z,97627.81
2022-08-11T17:24:39.706Z,97631.03
2022-08-11T17:27:17.550Z,97636.78
2022-08-11T17:29:55.313Z,97639.03
2022-08-11T17:32:56.792Z,97631.53
2022-08-11T17:35:39.728Z,97635.47
2022-08-11T17:38:19.909Z,97634.28
2022-08-11T17:41:14.525Z,97626.63
2022-08-11T17:44:14.555Z,97621.69
2022-08-11T17:47:06.094Z,97622.19
2022-08-11T17:49:40.530Z,97625.81
2022-08-11T17:52:38.813Z,97619.34
2022-08-11T17:55:51.735Z,97621.53
2022-08-11T17:58:37.785Z,97615.28
2022-08-11T18:01:10.127Z,97625.25
2022-08-11T18:03:41.699Z,97622.25
2022-08-11T18:06:33.660Z,97615.53
2022-08-11T18:09:33.256Z,97613.78
2022-08-11T18:12:24.291Z,97600.38
2022-08-11T18:15:15.339Z,97589.63
2022-08-11T18:18:04.713Z,97588.41
2022-08-11T18:20:55.050Z,97580.31
2022-08-11T18:23:46.608Z,97577.47
2022-08-11T18:26:41.340Z,97572.72
2022-08-11T18:29:31.429Z,97561.06
2022-08-11T18:32:49.164Z,97559.88
2022-08-11T18:35:39.958Z,97561.56
2022-08-11T18:38:32.096Z,97579.50
2022-08-11T18:41:26.552Z,97578.31
2022-08-11T18:44:19.493Z,97570.59
2022-08-11T18:47:11.256Z,97574.25
2022-08-11T18:50:05.823Z,97570.28
2022-08-11T18:52:55.239Z,97575.09
2022-08-11T18:55:44.112Z,97583.13
2022-08-11T18:58:35.125Z,97569.03
2022-08-11T19:01:25.804Z,97562.97
2022-08-11T19:04:17.355Z,97561.91
2022-08-11T19:07:09.978Z,97566.84
2022-08-11T19:10:02.309Z,97563.78
2022-08-11T19:12:58.733Z,97567.78
2022-08-11T19:15:47.728Z,97567.31
2022-08-11T19:18:41.768Z,97563.78
2022-08-11T19:21:31.070Z,97569.94
2022-08-11T19:24:22.228Z,97561.13
2022-08-11T19:27:12.947Z,97562.19
2022-08-11T19:30:13.272Z,97559.63
2022-08-11T19:33:02.810Z,97557.38
2022-08-11T19:35:51.270Z,97556.81
2022-08-11T19:38:40.500Z,97562.72
2022-08-11T19:41:56.329Z,97562.59
2022-08-11T19:44:38.130Z,97559.91
2022-08-11T19:47:27.365Z,97548.84
2022-08-11T19:50:21.526Z,97547.22
2022-08-11T19:53:16.956Z,97545.13
2022-08-11T19:56:08.083Z,97543.28
2022-08-11T19:58:57.749Z,97548.03
2022-08-11T20:02:01.341Z,97551.91
2022-08-11T20:04:54.265Z,97552.63
2022-08-11T20:07:42.880Z,97552.56
2022-08-11T20:10:34.142Z,97554.38
2022-08-11T20:13:26.597Z,97550.59
2022-08-11T20:16:17.052Z,97544.88
2022-08-11T20:19:06.826Z,97537.38
2022-08-11T20:21:57.215Z,97536.53
2022-08-11T20:24:45.554Z,97532.59
2022-08-11T20:27:34.784Z,97535.84
2022-08-11T20:30:24.591Z,97529.97
2022-08-11T20:33:13.660Z,97527.41
2022-08-11T20:36:01.324Z,97516.28
2022-08-11T20:38:52.695Z,97519.84
2022-08-11T20:41:58.274Z,97522.69
2022-08-11T20:44:48.344Z,97513.78
2022-08-11T20:47:56.494Z,97504.16
2022-08-11T20:50:46.597Z,97506.31
2022-08-11T20:53:39.124Z,97503.59
2022-08-11T20:56:30.027Z,97499.56
2022-08-11T20:59:21.887Z,97499.66
2022-08-11T21:02:12.414Z,97492.28
2022-08-11T21:05:00.821Z,97491.72
2022-08-11T21:07:56.643Z,97495.09
2022-08-11T21:10:51.650Z,97496.84
2022-08-11T21:13:46.982Z,97492.03
2022-08-11T21:16:47.720Z,97491.47
2022-08-11T21:20:01.153Z,97499.28
2022-08-11T21:23:05.424Z,97489.88
2022-08-11T21:26:04.121Z,97494.19
2022-08-11T21:28:55.254Z,97498.66
2022-08-11T21:31:46.286Z,97496.31
2022-08-11T21:34:38.077Z,97491.38
2022-08-11T21:37:28.446Z,97488.31
2022-08-11T21:40:18.261Z,97486.16
2022-08-11T21:43:07.665Z,97491.44
2022-08-11T21:45:58.201Z,97491.19
2022-08-11T21:48:47.581Z,97490.59
2022-08-11T21:51:36.266Z,97487.25
2022-08-11T21:54:31.313Z,97491.75
2022-08-11T21:57:21.024Z,97490.03
2022-08-11T22:00:14.898Z,97484.53
2022-08-11T22:03:06.982Z,97482.88
2022-08-11T22:05:56.830Z,97488.13
2022-08-11T22:08:44.824Z,97495.34
2022-08-11T22:11:34.217Z,97499.31
2022-08-11T22:14:23.046Z,97492.59
2022-08-11T22:17:11.367Z,97486.13
2022-08-11T22:20:01.035Z,97494.63
2022-08-11T22:22:53.218Z,97491.75
2022-08-11T22:25:54.243Z,97492.03
2022-08-11T22:28:43.861Z,97499.63
2022-08-11T22:31:32.412Z,97491.44
2022-08-11T22:34:22.861Z,97497.91
2022-08-11T22:37:13.603Z,97494.81
2022-08-11T22:40:16.649Z,97492.91
2022-08-11T22:43:05.676Z,97502.38
2022-08-11T22:45:53.646Z,97499.31
2022-08-11T22:48:42.593Z,97498.59
2022-08-11T22:51:30.985Z,97494.78
2022-08-11T22:54:23.170Z,97495.75
2022-08-11T22:57:11.946Z,97493.97
2022-08-11T23:00:00.722Z,97494.22
2022-08-11T23:02:50.030Z,97485.34
2022-08-11T23:05:38.420Z,97492.88
2022-08-11T23:08:27.691Z,97486.44
2022-08-11T23:11:17.607Z,97480.94
2022-08-11T23:14:06.256Z,97483.13
2022-08-11T23:16:54.465Z,97481.22
2022-08-11T23:20:09.383Z,97482.84
2022-08-11T23:22:54.833Z,97496.69
2022-08-11T23:25:43.467Z,97490.03
2022-08-11T23:28:34.757Z,97491.00
2022-08-11T23:31:23.257Z,97479.50
2022-08-11T23:34:41.617Z,97493.41
2022-08-11T23:37:25.211Z,97490.91
2022-08-11T23:40:13.301Z,97488.53
2022-08-11T23:43:01.593Z,97482.84
2022-08-11T23:45:49.315Z,97487.25
2022-08-11T23:48:39.173Z,97480.94
2022-08-11T23:51:27.598Z,97482.25
2022-08-11T23:54:36.446Z,97489.72
2022-08-11T23:57:25.405Z,97495.53
